createdAt,value
2023-02-11T00:00:11.413Z,4.95
2023-02-11T00:02:41.129Z,4.96
2023-02-11T00:05:11.677Z,5.20
2023-02-11T00:07:41.374Z,5.27
2023-02-11T00:10:11.936Z,5.43
2023-02-11T00:12:44.105Z,5.42
2023-02-11T00:15:13.991Z,5.40
2023-02-11T00:17:43.652Z,5.34
2023-02-11T00:20:13.528Z,5.40
2023-02-11T00:22:43.747Z,5.18
2023-02-11T00:25:13.360Z,5.32
2023-02-11T00:27:45.530Z,5.28
2023-02-11T00:30:16.648Z,5.36
2023-02-11T00:32:46.247Z,5.35
2023-02-11T00:35:15.997Z,5.30
2023-02-11T00:37:45.785Z,5.33
2023-02-11T00:40:16.142Z,5.21
2023-02-11T00:42:48.913Z,5.27
2023-02-11T00:45:18.931Z,5.19
2023-02-11T00:47:48.486Z,5.10
2023-02-11T00:50:18.164Z,5.12
2023-02-11T00:52:47.730Z,5.13
2023-02-11T00:55:17.433Z,5.19
2023-02-11T00:57:49.878Z,5.14
2023-02-11T01:00:20.338Z,5.17
2023-02-11T01:02:49.915Z,5.27
2023-02-11T01:05:19.626Z,5.32
2023-02-11T01:07:51.319Z,5.29
2023-02-11T01:10:21.166Z,5.33
2023-02-11T01:12:53.350Z,5.27
2023-02-11T01:15:23.451Z,5.28
2023-02-11T01:17:53.347Z,5.22
2023-02-11T01:20:25.463Z,5.18
2023-02-11T01:22:55.108Z,5.21
2023-02-11T01:25:24.722Z,5.23
2023-02-11T01:27:56.901Z,5.32
2023-02-11T01:30:26.589Z,5.24
2023-02-11T01:32:56.161Z,5.23
2023-02-11T01:35:25.843Z,5.28
2023-02-11T01:37:55.453Z,5.25
2023-02-11T01:40:25.216Z,5.33
2023-02-11T01:42:57.392Z,5.19
2023-02-11T01:45:59.947Z,5.13
2023-02-11T01:48:33.206Z,5.08
2023-02-11T01:51:08.846Z,5.07
2023-02-11T01:53:52.364Z,5.06
2023-02-11T01:56:36.491Z,4.97
2023-02-11T01:59:13.154Z,4.97
2023-02-11T02:01:47.574Z,5.02
2023-02-11T02:04:21.305Z,5.10
2023-02-11T02:06:55.776Z,5.17
2023-02-11T02:09:28.348Z,5.09
2023-02-11T02:12:00.530Z,5.08
2023-02-11T02:14:33.658Z,5.13
2023-02-11T02:17:03.497Z,5.18
2023-02-11T02:20:12.030Z,5.16
2023-02-11T02:23:16.237Z,5.13
2023-02-11T02:26:33.236Z,5.11
2023-02-11T02:29:26.883Z,5.16
2023-02-11T02:32:28.678Z,5.17
2023-02-11T02:35:10.649Z,5.17
2023-02-11T02:37:46.192Z,5.15
2023-02-11T02:40:22.732Z,5.15
2023-02-11T02:42:53.703Z,5.17
2023-02-11T02:45:23.660Z,5.19
2023-02-11T02:47:53.266Z,5.22
2023-02-11T02:50:32.552Z,5.21
2023-02-11T02:53:16.065Z,5.30
2023-02-11T02:55:59.466Z,5.26
2023-02-11T02:58:56.818Z,5.26
2023-02-11T03:01:37.560Z,5.24
2023-02-11T03:04:16.327Z,5.25
2023-02-11T03:06:54.674Z,5.38
2023-02-11T03:09:29.936Z,5.33
2023-02-11T03:11:59.867Z,5.12
2023-02-11T03:14:30.924Z,5.25
2023-02-11T03:17:03.748Z,5.19
2023-02-11T03:19:37.666Z,5.22
2023-02-11T03:22:14.777Z,5.27
2023-02-11T03:24:44.923Z,5.26
2023-02-11T03:27:21.149Z,5.21
2023-02-11T03:29:58.390Z,5.20
2023-02-11T03:32:31.702Z,5.23
2023-02-11T03:35:06.638Z,5.19
2023-02-11T03:37:42.967Z,5.21
2023-02-11T03:40:16.365Z,5.19
2023-02-11T03:42:49.136Z,5.26
2023-02-11T03:45:23.212Z,5.20
2023-02-11T03:47:57.676Z,5.24
2023-02-11T03:50:29.679Z,5.24
2023-02-11T03:53:04.478Z,5.22
2023-02-11T03:55:37.539Z,5.25
2023-02-11T03:58:07.487Z,5.39
2023-02-11T04:00:39.933Z,5.35
2023-02-11T04:03:10.321Z,5.35
2023-02-11T04:05:40.432Z,5.36
2023-02-11T04:08:12.729Z,5.25
2023-02-11T04:10:42.266Z,5.32
2023-02-11T04:13:11.826Z,5.21
2023-02-11T04:15:41.642Z,5.23
2023-02-11T04:18:11.179Z,5.29
2023-02-11T04:20:40.693Z,5.32
2023-02-11T04:23:12.931Z,5.38
2023-02-11T04:25:43.740Z,5.40
2023-02-11T04:28:13.320Z,5.38
2023-02-11T04:30:42.968Z,5.35
2023-02-11T04:33:12.551Z,5.47
2023-02-11T04:35:42.193Z,5.39
2023-02-11T04:38:14.444Z,5.36
2023-02-11T04:40:44.166Z,5.40
2023-02-11T04:43:13.948Z,5.52
2023-02-11T04:45:43.952Z,5.57
2023-02-11T04:48:13.646Z,5.55
2023-02-11T04:50:43.969Z,5.48
2023-02-11T04:53:16.111Z,5.54
2023-02-11T04:55:45.669Z,5.52
2023-02-11T04:58:15.322Z,5.47
2023-02-11T05:00:44.974Z,5.48
2023-02-11T05:03:14.808Z,5.49
2023-02-11T05:05:45.797Z,5.52
2023-02-11T05:08:17.954Z,5.58
2023-02-11T05:10:49.410Z,5.59
2023-02-11T05:13:18.969Z,5.67
2023-02-11T05:15:48.928Z,5.63
2023-02-11T05:18:18.890Z,5.55
2023-02-11T05:20:48.433Z,5.66
2023-02-11T05:23:20.664Z,5.83
2023-02-11T05:25:50.664Z,5.81
2023-02-11T05:28:20.548Z,5.78
2023-02-11T05:30:50.407Z,5.77
2023-02-11T05:33:20.310Z,5.66
2023-02-11T05:35:50.128Z,5.64
2023-02-11T05:38:22.407Z,5.65
2023-02-11T05:40:51.997Z,5.61
2023-02-11T05:43:22.073Z,5.55
2023-02-11T05:45:51.994Z,5.45
2023-02-11T05:48:21.828Z,5.40
2023-02-11T05:50:51.423Z,5.34
2023-02-11T05:53:24.628Z,5.34
2023-02-11T05:55:54.200Z,5.38
2023-02-11T05:58:23.751Z,5.36
2023-02-11T06:00:53.302Z,5.38
2023-02-11T06:03:23.518Z,5.46
2023-02-11T06:05:53.298Z,5.65
2023-02-11T06:08:25.675Z,5.57
2023-02-11T06:10:55.281Z,5.65
2023-02-11T06:13:24.898Z,5.83
2023-02-11T06:16:01.537Z,5.82
2023-02-11T06:18:33.563Z,5.78
2023-02-11T06:21:03.980Z,5.90
2023-02-11T06:23:39.035Z,5.92
2023-02-11T06:26:10.733Z,5.92
2023-02-11T06:28:42.047Z,6.04
2023-02-11T06:31:12.343Z,6.18
2023-02-11T06:33:42.062Z,6.18
2023-02-11T06:36:17.228Z,6.10
2023-02-11T06:38:49.760Z,6.11
2023-02-11T06:41:21.079Z,6.07
2023-02-11T06:43:51.629Z,5.82
2023-02-11T06:46:21.430Z,5.82
2023-02-11T06:48:51.041Z,5.84
2023-02-11T06:51:20.726Z,5.93
2023-02-11T06:53:52.914Z,6.01
2023-02-11T06:56:24.336Z,6.07
2023-02-11T06:58:56.178Z,5.97
2023-02-11T07:01:27.155Z,5.99
2023-02-11T07:03:57.050Z,5.95
2023-02-11T07:06:29.688Z,5.92
2023-02-11T07:09:01.975Z,5.94
2023-02-11T07:11:32.640Z,5.99
2023-02-11T07:14:04.546Z,6.05
2023-02-11T07:16:34.796Z,6.00
2023-02-11T07:19:04.439Z,5.96
2023-02-11T07:21:34.040Z,5.95
2023-02-11T07:24:11.070Z,5.92
2023-02-11T07:26:41.325Z,6.01
2023-02-11T07:29:10.955Z,5.95
2023-02-11T07:31:40.642Z,6.00
2023-02-11T07:34:10.316Z,6.01
2023-02-11T07:36:40.027Z,6.02
2023-02-11T07:39:12.204Z,5.84
2023-02-11T07:41:42.965Z,5.87
2023-02-11T07:44:12.743Z,5.86
2023-02-11T07:46:43.155Z,5.84
2023-02-11T07:49:12.916Z,5.80
2023-02-11T07:51:42.492Z,5.92
2023-02-11T07:54:15.077Z,5.84
2023-02-11T07:56:44.614Z,5.87
2023-02-11T07:59:14.828Z,5.89
2023-02-11T08:01:44.428Z,6.02
2023-02-11T08:04:14.298Z,6.03
2023-02-11T08:06:45.598Z,6.00
2023-02-11T08:09:19.400Z,6.04
2023-02-11T08:11:48.985Z,5.99
2023-02-11T08:14:20.534Z,5.99
2023-02-11T08:16:50.456Z,5.97
2023-02-11T08:19:20.260Z,6.04
2023-02-11T08:21:49.857Z,6.09
2023-02-11T08:24:22.646Z,6.01
2023-02-11T08:26:52.615Z,6.12
2023-02-11T08:29:22.197Z,6.15
2023-02-11T08:31:51.841Z,6.08
2023-02-11T08:34:22.113Z,6.20
2023-02-11T08:36:52.055Z,6.20
2023-02-11T08:39:25.498Z,6.25
2023-02-11T08:41:56.998Z,6.26
2023-02-11T08:44:27.124Z,6.35
2023-02-11T08:46:56.741Z,6.53
2023-02-11T08:49:26.418Z,6.58
2023-02-11T08:51:56.481Z,6.59
2023-02-11T08:54:28.659Z,6.68
2023-02-11T08:56:58.241Z,6.64
2023-02-11T08:59:27.891Z,6.67
2023-02-11T09:01:58.025Z,6.64
2023-02-11T09:04:27.890Z,6.68
2023-02-11T09:06:57.473Z,6.85
2023-02-11T09:09:29.627Z,6.84
2023-02-11T09:12:01.173Z,7.02
2023-02-11T09:14:30.817Z,7.30
2023-02-11T09:17:00.522Z,7.32
2023-02-11T09:19:30.155Z,7.45
2023-02-11T09:21:59.822Z,7.48
2023-02-11T09:24:31.963Z,7.44
2023-02-11T09:27:01.592Z,7.49
2023-02-11T09:29:31.177Z,7.64
2023-02-11T09:32:00.914Z,7.49
2023-02-11T09:34:30.637Z,7.58
2023-02-11T09:37:00.241Z,7.55
2023-02-11T09:39:32.507Z,7.54
2023-02-11T09:42:37.157Z,7.64
2023-02-11T09:45:08.302Z,7.54
2023-02-11T09:47:47.981Z,7.65
2023-02-11T09:50:22.116Z,7.79
2023-02-11T09:52:58.085Z,7.62
2023-02-11T09:55:34.299Z,7.66
2023-02-11T09:58:07.919Z,7.61
2023-02-11T10:00:43.016Z,7.60
2023-02-11T10:03:25.921Z,7.53
2023-02-11T10:06:25.452Z,7.52
2023-02-11T10:09:05.158Z,7.50
2023-02-11T10:11:49.841Z,7.33
2023-02-11T10:14:35.758Z,7.36
2023-02-11T10:17:18.555Z,7.34
2023-02-11T10:20:05.720Z,7.39
2023-02-11T10:22:41.859Z,7.50
2023-02-11T10:25:22.853Z,7.48
2023-02-11T10:27:57.349Z,7.49
2023-02-11T10:30:33.629Z,7.49
2023-02-11T10:33:06.992Z,7.58
2023-02-11T10:35:36.596Z,7.67
2023-02-11T10:38:06.160Z,7.71
2023-02-11T10:40:35.728Z,7.80
2023-02-11T10:43:13.114Z,8.03
2023-02-11T10:45:45.868Z,7.91
2023-02-11T10:48:44.209Z,7.93
2023-02-11T10:51:23.872Z,8.02
2023-02-11T10:54:15.141Z,7.85
2023-02-11T10:56:50.140Z,7.82
2023-02-11T10:59:28.955Z,7.86
2023-02-11T11:02:01.049Z,7.80
2023-02-11T11:04:41.991Z,7.93
2023-02-11T11:07:22.618Z,7.88
2023-02-11T11:09:59.151Z,7.92
2023-02-11T11:12:32.471Z,7.95
2023-02-11T11:15:18.883Z,7.79
2023-02-11T11:17:48.658Z,7.87
2023-02-11T11:20:23.182Z,7.95
2023-02-11T11:22:55.302Z,8.09
2023-02-11T11:25:27.407Z,8.17
2023-02-11T11:28:00.425Z,8.17
2023-02-11T11:30:41.245Z,8.15
2023-02-11T11:33:23.119Z,8.38
2023-02-11T11:36:02.377Z,8.29
2023-02-11T11:38:34.332Z,8.32
2023-02-11T11:41:21.432Z,8.32
2023-02-11T11:44:03.944Z,8.36
2023-02-11T11:46:38.747Z,8.58
2023-02-11T11:49:28.115Z,8.44
2023-02-11T11:52:10.833Z,8.50
2023-02-11T11:54:41.426Z,8.64
2023-02-11T11:57:17.924Z,8.52
2023-02-11T11:59:47.911Z,8.60
2023-02-11T12:02:44.618Z,8.42
2023-02-11T12:05:20.405Z,8.43
2023-02-11T12:07:57.170Z,8.55
2023-02-11T12:10:41.354Z,8.50
2023-02-11T12:13:23.835Z,8.53
2023-02-11T12:16:03.782Z,8.60
2023-02-11T12:18:55.802Z,8.65
2023-02-11T12:21:38.569Z,8.57
2023-02-11T12:24:27.625Z,8.47
2023-02-11T12:27:02.867Z,8.61
2023-02-11T12:29:40.055Z,8.66
2023-02-11T12:32:20.389Z,8.47
2023-02-11T12:35:22.432Z,8.45
2023-02-11T12:38:15.937Z,8.30
2023-02-11T12:40:48.901Z,8.39
2023-02-11T12:43:23.581Z,8.30
2023-02-11T12:46:14.577Z,8.35
2023-02-11T12:49:03.305Z,8.26
2023-02-11T12:51:45.711Z,8.24
2023-02-11T12:54:26.551Z,8.26
2023-02-11T12:57:02.609Z,8.12
2023-02-11T12:59:41.121Z,8.13
2023-02-11T13:02:22.298Z,8.19
2023-02-11T13:04:56.730Z,8.04
2023-02-11T13:07:31.338Z,8.16
2023-02-11T13:10:08.335Z,8.11
2023-02-11T13:12:52.008Z,8.13
2023-02-11T13:15:21.717Z,8.21
2023-02-11T13:18:01.145Z,8.15
2023-02-11T13:20:42.352Z,8.09
2023-02-11T13:23:24.247Z,8.03
2023-02-11T13:26:02.242Z,8.08
2023-02-11T13:28:43.075Z,8.14
2023-02-11T13:31:16.544Z,7.96
2023-02-11T13:33:49.598Z,7.96
2023-02-11T13:36:22.182Z,8.06
2023-02-11T13:39:02.502Z,8.01
2023-02-11T13:41:37.792Z,7.99
2023-02-11T13:44:24.894Z,8.01
2023-02-11T13:46:59.752Z,8.09
2023-02-11T13:49:35.345Z,8.19
2023-02-11T13:52:07.542Z,7.92
2023-02-11T13:54:40.690Z,8.00
2023-02-11T13:57:45.914Z,7.95
2023-02-11T14:00:51.440Z,8.04
2023-02-11T14:03:46.164Z,8.00
2023-02-11T14:06:31.748Z,8.05
2023-02-11T14:09:04.398Z,7.99
2023-02-11T14:11:51.236Z,7.97
2023-02-11T14:14:31.438Z,7.90
2023-02-11T14:17:31.561Z,7.85
2023-02-11T14:20:05.310Z,7.81
2023-02-11T14:22:49.194Z,7.84
2023-02-11T14:25:24.657Z,7.83
2023-02-11T14:27:57.401Z,7.84
2023-02-11T14:30:45.645Z,7.74
2023-02-11T14:33:50.019Z,7.80
2023-02-11T14:36:44.729Z,7.75
2023-02-11T14:39:26.837Z,7.71
2023-02-11T14:41:57.348Z,7.82
2023-02-11T14:44:30.642Z,7.74
2023-02-11T14:47:00.323Z,7.75
2023-02-11T14:49:32.232Z,7.76
2023-02-11T14:52:17.347Z,7.73
2023-02-11T14:54:47.659Z,7.74
2023-02-11T14:57:19.340Z,7.69
2023-02-11T14:59:59.208Z,7.66
2023-02-11T15:02:33.059Z,7.81
2023-02-11T15:05:19.088Z,7.75
2023-02-11T15:07:54.286Z,7.78
2023-02-11T15:10:31.445Z,7.81
2023-02-11T15:13:02.384Z,7.87
2023-02-11T15:15:34.682Z,7.81
2023-02-11T15:18:06.221Z,7.82
2023-02-11T15:20:37.060Z,7.66
2023-02-11T15:23:19.928Z,7.69
2023-02-11T15:25:53.017Z,7.69
2023-02-11T15:28:26.274Z,7.73
2023-02-11T15:31:04.447Z,7.71
2023-02-11T15:33:35.297Z,7.74
2023-02-11T15:36:05.769Z,7.70
2023-02-11T15:38:37.867Z,7.70
2023-02-11T15:41:08.156Z,7.74
2023-02-11T15:43:46.643Z,7.73
2023-02-11T15:46:19.644Z,7.71
2023-02-11T15:48:51.501Z,7.74
2023-02-11T15:51:25.410Z,7.83
2023-02-11T15:54:00.572Z,7.79
2023-02-11T15:56:33.296Z,7.82
2023-02-11T15:59:13.679Z,7.90
2023-02-11T16:01:43.701Z,7.98
2023-02-11T16:04:20.732Z,7.98
2023-02-11T16:06:51.445Z,7.90
2023-02-11T16:09:34.092Z,7.85
2023-02-11T16:12:07.564Z,7.84
2023-02-11T16:14:39.679Z,7.88
2023-02-11T16:17:12.406Z,7.87
2023-02-11T16:19:47.251Z,7.87
2023-02-11T16:22:20.588Z,7.86
2023-02-11T16:24:55.201Z,7.85
2023-02-11T16:27:28.607Z,7.91
2023-02-11T16:29:59.107Z,7.86
2023-02-11T16:32:30.777Z,7.90
2023-02-11T16:35:02.830Z,7.90
2023-02-11T16:37:32.645Z,7.89
2023-02-11T16:40:04.861Z,7.87
2023-02-11T16:42:34.398Z,7.85
2023-02-11T16:45:04.181Z,7.91
2023-02-11T16:47:34.478Z,8.02
2023-02-11T16:50:05.125Z,7.98
2023-02-11T16:52:34.954Z,8.04
2023-02-11T16:55:08.798Z,8.03
2023-02-11T16:57:38.429Z,7.97
2023-02-11T17:00:10.429Z,7.90
2023-02-11T17:02:41.185Z,7.96
2023-02-11T17:05:19.290Z,7.89
2023-02-11T17:07:48.992Z,7.89
2023-02-11T17:10:23.606Z,7.84
2023-02-11T17:12:53.975Z,7.82
2023-02-11T17:15:23.653Z,7.84
2023-02-11T17:17:53.218Z,7.88
2023-02-11T17:20:23.281Z,7.87
2023-02-11T17:22:53.516Z,7.89
2023-02-11T17:25:26.138Z,7.89
2023-02-11T17:27:55.900Z,7.85
2023-02-11T17:30:25.745Z,7.89
2023-02-11T17:32:55.301Z,7.85
2023-02-11T17:35:24.942Z,7.83
2023-02-11T17:37:54.557Z,7.81
2023-02-11T17:40:26.833Z,7.79
2023-02-11T17:42:56.431Z,7.80
2023-02-11T17:45:26.102Z,7.78
2023-02-11T17:47:55.674Z,7.78
2023-02-11T17:50:27.103Z,7.81
2023-02-11T17:52:58.433Z,7.77
2023-02-11T17:55:30.606Z,7.83
2023-02-11T17:58:00.250Z,7.76
2023-02-11T18:00:30.844Z,7.80
2023-02-11T18:03:02.897Z,7.81
2023-02-11T18:05:37.313Z,7.76
2023-02-11T18:08:08.366Z,7.76
2023-02-11T18:10:44.267Z,7.80
2023-02-11T18:13:13.872Z,7.74
2023-02-11T18:15:43.483Z,7.74
2023-02-11T18:18:13.195Z,7.70
2023-02-11T18:20:43.508Z,7.77
2023-02-11T18:23:13.546Z,7.72
2023-02-11T18:25:46.655Z,7.62
2023-02-11T18:28:16.246Z,7.67
2023-02-11T18:30:45.876Z,7.69
2023-02-11T18:33:15.886Z,7.69
2023-02-11T18:35:47.219Z,7.60
2023-02-11T18:38:16.812Z,7.62
2023-02-11T18:40:50.541Z,7.59
2023-02-11T18:43:20.565Z,7.57
2023-02-11T18:45:52.285Z,7.59
2023-02-11T18:48:22.077Z,7.69
2023-02-11T18:50:51.625Z,7.66
2023-02-11T18:53:21.252Z,7.62
2023-02-11T18:55:53.800Z,7.70
2023-02-11T18:58:23.927Z,7.71
2023-02-11T19:00:53.508Z,7.75
2023-02-11T19:03:23.077Z,7.70
2023-02-11T19:05:54.650Z,7.81
2023-02-11T19:08:24.410Z,7.84
2023-02-11T19:10:56.591Z,7.86
2023-02-11T19:13:27.476Z,7.82
2023-02-11T19:15:57.076Z,7.75
2023-02-11T19:18:26.651Z,7.90
2023-02-11T19:20:56.253Z,7.96
2023-02-11T19:23:25.825Z,7.91
2023-02-11T19:25:57.944Z,7.94
2023-02-11T19:28:27.547Z,7.92
2023-02-11T19:30:57.220Z,7.77
2023-02-11T19:33:27.189Z,7.66
2023-02-11T19:35:56.727Z,7.63
2023-02-11T19:38:26.241Z,7.78
2023-02-11T19:41:01.105Z,7.74
2023-02-11T19:43:31.060Z,7.74
2023-02-11T19:46:01.007Z,7.62
2023-02-11T19:48:30.672Z,7.69
2023-02-11T19:51:00.731Z,7.63
2023-02-11T19:53:30.321Z,7.62
2023-02-11T19:56:03.330Z,7.56
2023-02-11T19:58:32.889Z,7.55
2023-02-11T20:01:08.268Z,7.53
2023-02-11T20:03:40.201Z,7.42
2023-02-11T20:06:14.485Z,7.49
2023-02-11T20:08:44.453Z,7.47
2023-02-11T20:11:18.741Z,7.56
2023-02-11T20:13:49.241Z,7.51
2023-02-11T20:16:21.174Z,7.49
2023-02-11T20:18:52.280Z,7.49
2023-02-11T20:21:24.481Z,7.49
2023-02-11T20:23:54.599Z,7.49
2023-02-11T20:26:28.793Z,7.57
2023-02-11T20:29:02.226Z,7.58
2023-02-11T20:31:33.516Z,7.60
2023-02-11T20:34:03.675Z,7.62
2023-02-11T20:36:37.570Z,7.65
2023-02-11T20:39:09.124Z,7.60
2023-02-11T20:41:41.898Z,7.58
2023-02-11T20:44:13.278Z,7.63
2023-02-11T20:46:46.028Z,7.55
2023-02-11T20:49:16.959Z,7.51
2023-02-11T20:51:46.529Z,7.56
2023-02-11T20:54:17.855Z,7.56
2023-02-11T20:56:53.605Z,7.49
2023-02-11T20:59:23.626Z,7.56
2023-02-11T21:01:56.244Z,7.50
2023-02-11T21:04:27.579Z,7.56
2023-02-11T21:06:58.998Z,7.59
2023-02-11T21:09:30.340Z,7.49
2023-02-11T21:12:02.931Z,7.48
2023-02-11T21:14:32.540Z,7.51
2023-02-11T21:17:02.433Z,7.51
2023-02-11T21:19:31.987Z,7.50
2023-02-11T21:22:01.853Z,7.50
2023-02-11T21:24:31.454Z,7.51
2023-02-11T21:27:03.851Z,7.49
2023-02-11T21:29:36.660Z,7.42
2023-02-11T21:32:10.176Z,7.39
2023-02-11T21:34:39.820Z,7.38
2023-02-11T21:37:09.375Z,7.50
2023-02-11T21:39:39.474Z,7.46
2023-02-11T21:42:11.662Z,7.48
2023-02-11T21:44:41.250Z,7.50
2023-02-11T21:47:10.791Z,7.60
2023-02-11T21:49:40.357Z,7.64
2023-02-11T21:52:09.871Z,7.53
2023-02-11T21:54:39.417Z,7.51
2023-02-11T21:57:11.535Z,7.47
2023-02-11T21:59:41.112Z,7.40
2023-02-11T22:02:11.888Z,7.47
2023-02-11T22:04:41.538Z,7.47
2023-02-11T22:07:12.675Z,7.42
2023-02-11T22:09:43.236Z,7.50
2023-02-11T22:12:15.396Z,7.47
2023-02-11T22:14:45.133Z,7.37
2023-02-11T22:17:14.830Z,7.39
2023-02-11T22:19:44.770Z,7.37
2023-02-11T22:22:18.204Z,7.48
2023-02-11T22:24:48.438Z,7.50
2023-02-11T22:27:20.828Z,7.49
2023-02-11T22:29:50.476Z,7.49
2023-02-11T22:32:20.096Z,7.39
2023-02-11T22:34:52.173Z,7.48
2023-02-11T22:37:23.168Z,7.48
2023-02-11T22:39:52.998Z,7.41
2023-02-11T22:42:25.709Z,7.54
2023-02-11T22:44:55.251Z,7.51
2023-02-11T22:47:24.857Z,7.57
2023-02-11T22:49:56.972Z,7.45
2023-02-11T22:52:26.519Z,7.55
2023-02-11T22:54:56.058Z,7.60
2023-02-11T22:57:29.186Z,7.68
2023-02-11T22:59:58.702Z,7.70
2023-02-11T23:02:28.251Z,7.71
2023-02-11T23:04:59.452Z,7.48
2023-02-11T23:07:29.097Z,7.51
2023-02-11T23:09:58.681Z,7.56
2023-02-11T23:12:30.964Z,7.43
2023-02-11T23:15:02.113Z,7.57
2023-02-11T23:17:33.329Z,7.53
2023-02-11T23:20:02.904Z,7.66
2023-02-11T23:22:32.734Z,7.65
2023-02-11T23:25:02.582Z,7.61
2023-02-11T23:27:34.744Z,7.59
2023-02-11T23:30:04.664Z,7.71
2023-02-11T23:32:34.432Z,7.50
2023-02-11T23:35:04.051Z,7.65
2023-02-11T23:37:33.962Z,7.63
2023-02-11T23:40:03.532Z,7.59
2023-02-11T23:42:35.645Z,7.65
2023-02-11T23:45:05.701Z,7.62
2023-02-11T23:47:35.467Z,7.64
2023-02-11T23:50:05.040Z,7.66
2023-02-11T23:52:34.673Z,7.62
2023-02-11T23:55:04.312Z,7.64
2023-02-11T23:57:37.456Z,7.56
